sensor_id;sensor_type;location;lat;lon;timestamp;pressure;altitude;pressure_sealevel;temperature;humidity
62928;BME280;51070;52.236;-0.892;2022-09-24T00:01:16;100771.42;;;12.36;67.19
62928;BME280;51070;52.236;-0.892;2022-09-24T00:03:43;100773.61;;;12.33;67.22
62928;BME280;51070;52.236;-0.892;2022-09-24T00:06:10;100777.20;;;12.32;67.33
62928;BME280;51070;52.236;-0.892;2022-09-24T00:08:39;100773.71;;;12.30;67.46
62928;BME280;51070;52.236;-0.892;2022-09-24T00:11:05;100772.80;;;12.29;67.60
62928;BME280;51070;52.236;-0.892;2022-09-24T00:13:32;100773.59;;;12.26;67.45
62928;BME280;51070;52.236;-0.892;2022-09-24T00:16:04;100772.63;;;12.23;67.57
62928;BME280;51070;52.236;-0.892;2022-09-24T00:18:30;100768.73;;;12.19;67.53
62928;BME280;51070;52.236;-0.892;2022-09-24T00:20:56;100774.36;;;12.15;67.69
62928;BME280;51070;52.236;-0.892;2022-09-24T00:23:22;100774.31;;;12.13;67.85
62928;BME280;51070;52.236;-0.892;2022-09-24T00:25:47;100770.44;;;12.11;67.82
62928;BME280;51070;52.236;-0.892;2022-09-24T00:28:32;100772.80;;;12.09;67.85
62928;BME280;51070;52.236;-0.892;2022-09-24T00:31:02;100775.15;;;12.06;68.05
62928;BME280;51070;52.236;-0.892;2022-09-24T00:33:28;100775.60;;;12.04;68.10
62928;BME280;51070;52.236;-0.892;2022-09-24T00:35:58;100774.27;;;11.99;68.17
62928;BME280;51070;52.236;-0.892;2022-09-24T00:38:27;100771.52;;;11.94;68.24
62928;BME280;51070;52.236;-0.892;2022-09-24T00:40:53;100772.45;;;11.90;68.76
62928;BME280;51070;52.236;-0.892;2022-09-24T00:43:30;100770.15;;;11.89;68.85
62928;BME280;51070;52.236;-0.892;2022-09-24T00:48:32;100775.34;;;11.88;69.16
62928;BME280;51070;52.236;-0.892;2022-09-24T00:51:00;100778.85;;;11.90;69.17
62928;BME280;51070;52.236;-0.892;2022-09-24T00:53:26;100775.87;;;11.89;69.52
62928;BME280;51070;52.236;-0.892;2022-09-24T00:55:58;100772.59;;;11.89;69.44
62928;BME280;51070;52.236;-0.892;2022-09-24T00:58:25;100771.39;;;11.83;69.19
62928;BME280;51070;52.236;-0.892;2022-09-24T01:00:57;100772.14;;;11.68;69.37
62928;BME280;51070;52.236;-0.892;2022-09-24T01:03:25;100767.09;;;11.55;69.69
62928;BME280;51070;52.236;-0.892;2022-09-24T01:05:52;100770.27;;;11.46;70.17
62928;BME280;51070;52.236;-0.892;2022-09-24T01:08:19;100771.38;;;11.42;70.29
62928;BME280;51070;52.236;-0.892;2022-09-24T01:22:04;100765.20;;;11.26;71.12
62928;BME280;51070;52.236;-0.892;2022-09-24T01:25:09;100761.58;;;11.26;71.19
62928;BME280;51070;52.236;-0.892;2022-09-24T01:30:11;100758.73;;;11.30;71.29
62928;BME280;51070;52.236;-0.892;2022-09-24T01:32:59;100756.65;;;11.30;71.51
62928;BME280;51070;52.236;-0.892;2022-09-24T01:35:38;100755.59;;;11.29;71.58
62928;BME280;51070;52.236;-0.892;2022-09-24T01:38:16;100754.37;;;11.28;71.58
62928;BME280;51070;52.236;-0.892;2022-09-24T01:40:45;100752.52;;;11.24;71.25
62928;BME280;51070;52.236;-0.892;2022-09-24T01:43:13;100749.78;;;11.20;71.28
62928;BME280;51070;52.236;-0.892;2022-09-24T01:45:40;100754.87;;;11.16;71.43
62928;BME280;51070;52.236;-0.892;2022-09-24T01:48:06;100756.11;;;11.12;71.40
62928;BME280;51070;52.236;-0.892;2022-09-24T01:50:39;100749.90;;;11.06;71.69
62928;BME280;51070;52.236;-0.892;2022-09-24T01:53:16;100746.92;;;11.05;71.49
62928;BME280;51070;52.236;-0.892;2022-09-24T01:55:50;100748.75;;;11.03;71.78
62928;BME280;51070;52.236;-0.892;2022-09-24T01:58:24;100742.14;;;11.02;71.62
62928;BME280;51070;52.236;-0.892;2022-09-24T02:00:57;100742.61;;;11.00;71.80
62928;BME280;51070;52.236;-0.892;2022-09-24T02:03:28;100743.73;;;10.97;71.79
62928;BME280;51070;52.236;-0.892;2022-09-24T02:06:11;100741.94;;;10.95;71.93
62928;BME280;51070;52.236;-0.892;2022-09-24T02:08:42;100742.35;;;10.92;72.00
62928;BME280;51070;52.236;-0.892;2022-09-24T02:11:18;100744.36;;;10.89;72.03
62928;BME280;51070;52.236;-0.892;2022-09-24T02:14:06;100743.48;;;10.89;72.35
62928;BME280;51070;52.236;-0.892;2022-09-24T02:16:42;100741.15;;;10.86;72.59
62928;BME280;51070;52.236;-0.892;2022-09-24T02:19:13;100737.48;;;10.85;72.86
62928;BME280;51070;52.236;-0.892;2022-09-24T02:21:40;100736.12;;;10.86;72.97
62928;BME280;51070;52.236;-0.892;2022-09-24T02:26:37;100733.91;;;10.87;73.13
62928;BME280;51070;52.236;-0.892;2022-09-24T02:29:02;100732.66;;;10.86;73.22
62928;BME280;51070;52.236;-0.892;2022-09-24T02:31:31;100732.42;;;10.83;73.23
62928;BME280;51070;52.236;-0.892;2022-09-24T02:34:03;100732.55;;;10.82;73.42
62928;BME280;51070;52.236;-0.892;2022-09-24T02:37:10;100732.33;;;10.80;73.26
62928;BME280;51070;52.236;-0.892;2022-09-24T02:39:36;100735.89;;;10.78;73.49
62928;BME280;51070;52.236;-0.892;2022-09-24T02:42:03;100736.54;;;10.77;73.72
62928;BME280;51070;52.236;-0.892;2022-09-24T02:44:33;100737.66;;;10.74;73.50
62928;BME280;51070;52.236;-0.892;2022-09-24T02:46:58;100737.65;;;10.74;73.78
62928;BME280;51070;52.236;-0.892;2022-09-24T02:49:24;100739.56;;;10.75;73.74
62928;BME280;51070;52.236;-0.892;2022-09-24T02:51:50;100735.96;;;10.76;73.80
62928;BME280;51070;52.236;-0.892;2022-09-24T02:54:15;100733.00;;;10.75;73.88
62928;BME280;51070;52.236;-0.892;2022-09-24T02:56:41;100730.60;;;10.76;73.98
62928;BME280;51070;52.236;-0.892;2022-09-24T02:59:07;100730.95;;;10.75;74.00
62928;BME280;51070;52.236;-0.892;2022-09-24T03:01:36;100730.22;;;10.74;73.94
62928;BME280;51070;52.236;-0.892;2022-09-24T03:04:02;100731.70;;;10.72;73.76
62928;BME280;51070;52.236;-0.892;2022-09-24T03:06:28;100730.36;;;10.67;73.94
62928;BME280;51070;52.236;-0.892;2022-09-24T03:08:55;100729.55;;;10.64;74.10
62928;BME280;51070;52.236;-0.892;2022-09-24T03:11:21;100726.66;;;10.60;74.07
62928;BME280;51070;52.236;-0.892;2022-09-24T03:13:49;100729.14;;;10.57;74.35
62928;BME280;51070;52.236;-0.892;2022-09-24T03:16:15;100732.14;;;10.53;74.42
62928;BME280;51070;52.236;-0.892;2022-09-24T03:18:41;100729.91;;;10.48;74.30
62928;BME280;51070;52.236;-0.892;2022-09-24T03:21:10;100730.49;;;10.45;74.42
62928;BME280;51070;52.236;-0.892;2022-09-24T03:23:36;100738.04;;;10.43;74.53
62928;BME280;51070;52.236;-0.892;2022-09-24T03:26:02;100737.25;;;10.41;74.33
62928;BME280;51070;52.236;-0.892;2022-09-24T03:28:28;100738.16;;;10.36;74.57
62928;BME280;51070;52.236;-0.892;2022-09-24T03:30:54;100738.71;;;10.33;74.71
62928;BME280;51070;52.236;-0.892;2022-09-24T03:33:34;100742.27;;;10.31;74.86
62928;BME280;51070;52.236;-0.892;2022-09-24T03:36:09;100741.45;;;10.27;75.07
62928;BME280;51070;52.236;-0.892;2022-09-24T03:38:35;100742.21;;;10.24;75.52
62928;BME280;51070;52.236;-0.892;2022-09-24T03:41:03;100736.55;;;10.24;75.41
62928;BME280;51070;52.236;-0.892;2022-09-24T03:43:29;100737.20;;;10.23;75.45
62928;BME280;51070;52.236;-0.892;2022-09-24T03:45:56;100737.13;;;10.22;75.78
62928;BME280;51070;52.236;-0.892;2022-09-24T03:48:23;100739.52;;;10.21;75.91
62928;BME280;51070;52.236;-0.892;2022-09-24T03:50:49;100738.64;;;10.20;76.12
62928;BME280;51070;52.236;-0.892;2022-09-24T03:53:15;100742.09;;;10.20;76.06
62928;BME280;51070;52.236;-0.892;2022-09-24T03:55:42;100743.83;;;10.21;76.18
62928;BME280;51070;52.236;-0.892;2022-09-24T03:58:09;100742.46;;;10.21;75.90
62928;BME280;51070;52.236;-0.892;2022-09-24T04:00:34;100745.20;;;10.20;75.99
62928;BME280;51070;52.236;-0.892;2022-09-24T04:02:59;100748.23;;;10.14;76.41
62928;BME280;51070;52.236;-0.892;2022-09-24T04:05:25;100747.05;;;10.10;76.59
62928;BME280;51070;52.236;-0.892;2022-09-24T04:07:50;100744.55;;;10.07;76.74
62928;BME280;51070;52.236;-0.892;2022-09-24T04:10:16;100745.52;;;10.05;76.85
62928;BME280;51070;52.236;-0.892;2022-09-24T04:12:41;100747.79;;;10.06;77.10
62928;BME280;51070;52.236;-0.892;2022-09-24T04:15:10;100747.45;;;10.06;76.75
62928;BME280;51070;52.236;-0.892;2022-09-24T04:17:36;100749.00;;;10.06;76.91
62928;BME280;51070;52.236;-0.892;2022-09-24T04:20:01;100751.49;;;10.08;77.00
62928;BME280;51070;52.236;-0.892;2022-09-24T04:22:27;100751.41;;;10.11;76.75
62928;BME280;51070;52.236;-0.892;2022-09-24T04:24:55;100756.44;;;10.11;76.55
62928;BME280;51070;52.236;-0.892;2022-09-24T04:27:21;100757.76;;;10.09;76.76
62928;BME280;51070;52.236;-0.892;2022-09-24T04:29:47;100758.05;;;10.08;76.76
62928;BME280;51070;52.236;-0.892;2022-09-24T04:32:18;100756.89;;;10.04;76.80
62928;BME280;51070;52.236;-0.892;2022-09-24T04:34:46;100758.99;;;10.00;76.82
62928;BME280;51070;52.236;-0.892;2022-09-24T04:37:11;100757.20;;;9.98;77.33
62928;BME280;51070;52.236;-0.892;2022-09-24T04:39:37;100763.01;;;9.96;77.36
62928;BME280;51070;52.236;-0.892;2022-09-24T04:42:02;100766.54;;;9.94;77.48
62928;BME280;51070;52.236;-0.892;2022-09-24T04:44:30;100765.48;;;9.93;77.41
62928;BME280;51070;52.236;-0.892;2022-09-24T04:46:58;100768.56;;;9.93;77.30
62928;BME280;51070;52.236;-0.892;2022-09-24T04:49:29;100770.66;;;9.89;77.66
62928;BME280;51070;52.236;-0.892;2022-09-24T04:51:54;100770.27;;;9.87;77.67
62928;BME280;51070;52.236;-0.892;2022-09-24T04:54:23;100773.91;;;9.88;77.72
62928;BME280;51070;52.236;-0.892;2022-09-24T04:56:49;100777.69;;;9.92;77.78
62928;BME280;51070;52.236;-0.892;2022-09-24T04:59:15;100779.13;;;9.94;77.47
62928;BME280;51070;52.236;-0.892;2022-09-24T05:01:40;100776.75;;;9.95;77.27
62928;BME280;51070;52.236;-0.892;2022-09-24T05:04:06;100777.38;;;9.93;76.94
62928;BME280;51070;52.236;-0.892;2022-09-24T05:06:31;100781.13;;;9.92;77.16
62928;BME280;51070;52.236;-0.892;2022-09-24T05:08:57;100782.33;;;9.91;77.10
62928;BME280;51070;52.236;-0.892;2022-09-24T05:11:23;100780.75;;;9.91;77.25
62928;BME280;51070;52.236;-0.892;2022-09-24T05:13:48;100780.20;;;9.90;77.20
62928;BME280;51070;52.236;-0.892;2022-09-24T05:16:13;100779.31;;;9.89;77.21
62928;BME280;51070;52.236;-0.892;2022-09-24T05:18:39;100778.76;;;9.88;77.29
62928;BME280;51070;52.236;-0.892;2022-09-24T05:21:05;100781.31;;;9.87;77.69
62928;BME280;51070;52.236;-0.892;2022-09-24T05:23:30;100781.44;;;9.86;77.67
62928;BME280;51070;52.236;-0.892;2022-09-24T05:25:56;100784.06;;;9.87;77.79
62928;BME280;51070;52.236;-0.892;2022-09-24T05:28:39;100783.86;;;9.86;77.80
62928;BME280;51070;52.236;-0.892;2022-09-24T05:31:07;100786.40;;;9.85;77.82
62928;BME280;51070;52.236;-0.892;2022-09-24T05:33:33;100788.12;;;9.85;77.70
62928;BME280;51070;52.236;-0.892;2022-09-24T05:35:59;100795.48;;;9.83;77.65
62928;BME280;51070;52.236;-0.892;2022-09-24T05:38:24;100797.88;;;9.82;77.81
62928;BME280;51070;52.236;-0.892;2022-09-24T05:40:50;100799.06;;;9.82;77.93
62928;BME280;51070;52.236;-0.892;2022-09-24T05:43:16;100800.98;;;9.83;77.80
62928;BME280;51070;52.236;-0.892;2022-09-24T05:45:44;100802.73;;;9.84;77.92
62928;BME280;51070;52.236;-0.892;2022-09-24T05:48:11;100799.92;;;9.86;77.96
62928;BME280;51070;52.236;-0.892;2022-09-24T05:50:37;100805.52;;;9.89;77.99
62928;BME280;51070;52.236;-0.892;2022-09-24T05:53:03;100808.34;;;9.90;77.90
62928;BME280;51070;52.236;-0.892;2022-09-24T05:55:30;100811.65;;;9.91;77.84
62928;BME280;51070;52.236;-0.892;2022-09-24T05:58:05;100816.07;;;9.89;77.61
62928;BME280;51070;52.236;-0.892;2022-09-24T06:00:32;100824.05;;;9.85;77.77
62928;BME280;51070;52.236;-0.892;2022-09-24T06:03:02;100824.63;;;9.83;77.83
62928;BME280;51070;52.236;-0.892;2022-09-24T06:05:29;100825.73;;;9.80;77.65
62928;BME280;51070;52.236;-0.892;2022-09-24T06:07:55;100829.65;;;9.78;77.96
62928;BME280;51070;52.236;-0.892;2022-09-24T06:10:20;100830.68;;;9.78;78.03
62928;BME280;51070;52.236;-0.892;2022-09-24T06:12:46;100832.11;;;9.75;77.94
62928;BME280;51070;52.236;-0.892;2022-09-24T06:15:13;100836.20;;;9.73;77.95
62928;BME280;51070;52.236;-0.892;2022-09-24T06:17:38;100834.73;;;9.75;78.19
62928;BME280;51070;52.236;-0.892;2022-09-24T06:20:04;100839.86;;;9.79;78.05
62928;BME280;51070;52.236;-0.892;2022-09-24T06:22:30;100842.81;;;9.80;77.93
62928;BME280;51070;52.236;-0.892;2022-09-24T06:24:55;100846.02;;;9.82;78.08
62928;BME280;51070;52.236;-0.892;2022-09-24T06:27:21;100847.42;;;9.83;77.87
62928;BME280;51070;52.236;-0.892;2022-09-24T06:29:47;100847.41;;;9.87;77.88
62928;BME280;51070;52.236;-0.892;2022-09-24T06:32:12;100850.64;;;9.90;77.64
62928;BME280;51070;52.236;-0.892;2022-09-24T06:34:38;100846.95;;;9.94;77.35
62928;BME280;51070;52.236;-0.892;2022-09-24T06:37:03;100850.02;;;9.97;77.34
62928;BME280;51070;52.236;-0.892;2022-09-24T06:39:28;100851.81;;;9.99;77.34
62928;BME280;51070;52.236;-0.892;2022-09-24T06:41:54;100855.83;;;10.04;77.28
62928;BME280;51070;52.236;-0.892;2022-09-24T06:44:20;100861.73;;;10.10;77.24
62928;BME280;51070;52.236;-0.892;2022-09-24T06:46:46;100864.04;;;10.16;77.02
62928;BME280;51070;52.236;-0.892;2022-09-24T06:49:12;100864.90;;;10.20;76.72
62928;BME280;51070;52.236;-0.892;2022-09-24T06:51:38;100862.27;;;10.24;76.68
62928;BME280;51070;52.236;-0.892;2022-09-24T06:54:04;100859.27;;;10.27;76.56
62928;BME280;51070;52.236;-0.892;2022-09-24T06:56:30;100866.09;;;10.29;76.39
62928;BME280;51070;52.236;-0.892;2022-09-24T06:58:55;100865.66;;;10.32;76.52
62928;BME280;51070;52.236;-0.892;2022-09-24T07:01:21;100871.70;;;10.37;76.54
62928;BME280;51070;52.236;-0.892;2022-09-24T07:03:47;100872.23;;;10.42;76.32
62928;BME280;51070;52.236;-0.892;2022-09-24T07:06:12;100874.17;;;10.48;76.00
62928;BME280;51070;52.236;-0.892;2022-09-24T07:08:37;100882.02;;;10.55;75.87
62928;BME280;51070;52.236;-0.892;2022-09-24T07:11:03;100882.64;;;10.63;75.65
62928;BME280;51070;52.236;-0.892;2022-09-24T07:13:29;100883.16;;;10.73;75.29
62928;BME280;51070;52.236;-0.892;2022-09-24T07:15:54;100882.90;;;10.86;75.23
62928;BME280;51070;52.236;-0.892;2022-09-24T07:18:20;100883.65;;;11.03;74.82
62928;BME280;51070;52.236;-0.892;2022-09-24T07:20:53;100884.86;;;11.19;74.50
62928;BME280;51070;52.236;-0.892;2022-09-24T07:23:20;100887.40;;;11.33;74.01
62928;BME280;51070;52.236;-0.892;2022-09-24T07:25:46;100887.45;;;11.46;73.67
62928;BME280;51070;52.236;-0.892;2022-09-24T07:28:13;100888.86;;;11.58;73.44
62928;BME280;51070;52.236;-0.892;2022-09-24T07:30:40;100888.11;;;11.67;73.12
62928;BME280;51070;52.236;-0.892;2022-09-24T07:33:06;100885.74;;;11.74;72.87
62928;BME280;51070;52.236;-0.892;2022-09-24T07:35:33;100885.54;;;11.79;72.59
62928;BME280;51070;52.236;-0.892;2022-09-24T07:38:16;100884.95;;;11.83;72.64
62928;BME280;51070;52.236;-0.892;2022-09-24T07:40:42;100884.77;;;11.88;72.33
62928;BME280;51070;52.236;-0.892;2022-09-24T07:43:09;100884.21;;;11.92;72.05
62928;BME280;51070;52.236;-0.892;2022-09-24T07:45:40;100883.16;;;11.97;72.05
62928;BME280;51070;52.236;-0.892;2022-09-24T07:48:08;100883.40;;;12.01;71.69
62928;BME280;51070;52.236;-0.892;2022-09-24T07:50:38;100885.21;;;12.03;71.73
62928;BME280;51070;52.236;-0.892;2022-09-24T07:53:04;100882.71;;;12.12;71.62
62928;BME280;51070;52.236;-0.892;2022-09-24T07:55:30;100888.08;;;12.31;71.32
62928;BME280;51070;52.236;-0.892;2022-09-24T07:57:56;100890.82;;;12.42;71.05
62928;BME280;51070;52.236;-0.892;2022-09-24T08:00:23;100892.01;;;12.47;70.80
62928;BME280;51070;52.236;-0.892;2022-09-24T08:02:49;100889.30;;;12.56;70.57
62928;BME280;51070;52.236;-0.892;2022-09-24T08:05:17;100891.64;;;12.66;70.23
62928;BME280;51070;52.236;-0.892;2022-09-24T08:07:52;100892.36;;;12.74;70.18
62928;BME280;51070;52.236;-0.892;2022-09-24T08:10:18;100896.65;;;12.79;70.11
62928;BME280;51070;52.236;-0.892;2022-09-24T08:12:45;100899.06;;;12.85;69.61
62928;BME280;51070;52.236;-0.892;2022-09-24T08:15:10;100901.41;;;12.95;69.52
62928;BME280;51070;52.236;-0.892;2022-09-24T08:17:36;100904.83;;;13.13;69.28
62928;BME280;51070;52.236;-0.892;2022-09-24T08:20:01;100905.48;;;13.32;68.98
62928;BME280;51070;52.236;-0.892;2022-09-24T08:22:27;100905.83;;;13.54;68.50
62928;BME280;51070;52.236;-0.892;2022-09-24T08:24:53;100906.20;;;13.70;67.74
62928;BME280;51070;52.236;-0.892;2022-09-24T08:27:19;100906.17;;;13.85;67.39
62928;BME280;51070;52.236;-0.892;2022-09-24T08:29:45;100909.53;;;14.03;66.91
62928;BME280;51070;52.236;-0.892;2022-09-24T08:32:11;100909.77;;;14.15;66.42
62928;BME280;51070;52.236;-0.892;2022-09-24T08:34:37;100910.73;;;14.28;66.00
62928;BME280;51070;52.236;-0.892;2022-09-24T08:37:05;100912.27;;;14.52;65.42
62928;BME280;51070;52.236;-0.892;2022-09-24T08:39:32;100917.83;;;14.79;64.95
62928;BME280;51070;52.236;-0.892;2022-09-24T08:44:56;100920.05;;;15.27;62.88
62928;BME280;51070;52.236;-0.892;2022-09-24T08:47:51;100922.39;;;15.43;62.45
62928;BME280;51070;52.236;-0.892;2022-09-24T08:50:20;100916.91;;;16.10;61.07
62928;BME280;51070;52.236;-0.892;2022-09-24T08:55:45;100923.61;;;16.72;59.02
62928;BME280;51070;52.236;-0.892;2022-09-24T08:59:13;100930.52;;;16.51;58.97
62928;BME280;51070;52.236;-0.892;2022-09-24T09:11:44;100942.61;;;16.01;59.07
62928;BME280;51070;52.236;-0.892;2022-09-24T09:14:51;100940.10;;;16.08;59.23
62928;BME280;51070;52.236;-0.892;2022-09-24T09:19:55;100945.83;;;16.07;58.90
62928;BME280;51070;52.236;-0.892;2022-09-24T09:22:28;100943.58;;;16.63;58.11
62928;BME280;51070;52.236;-0.892;2022-09-24T09:25:02;100943.68;;;17.71;56.45
62928;BME280;51070;52.236;-0.892;2022-09-24T09:27:28;100944.53;;;18.73;54.71
62928;BME280;51070;52.236;-0.892;2022-09-24T09:29:57;100946.52;;;19.78;53.12
62928;BME280;51070;52.236;-0.892;2022-09-24T09:35:31;100948.60;;;19.99;50.50
62928;BME280;51070;52.236;-0.892;2022-09-24T09:38:21;100956.73;;;19.56;50.98
62928;BME280;51070;52.236;-0.892;2022-09-24T09:41:03;100955.31;;;19.26;51.22
62928;BME280;51070;52.236;-0.892;2022-09-24T09:43:31;100956.70;;;19.12;51.24
62928;BME280;51070;52.236;-0.892;2022-09-24T09:46:13;100960.03;;;19.71;50.38
62928;BME280;51070;52.236;-0.892;2022-09-24T09:51:16;100951.55;;;21.39;47.50
62928;BME280;51070;52.236;-0.892;2022-09-24T09:53:59;100952.90;;;22.01;46.30
62928;BME280;51070;52.236;-0.892;2022-09-24T09:56:28;100946.98;;;22.55;45.36
62928;BME280;51070;52.236;-0.892;2022-09-24T09:59:16;100946.60;;;22.96;44.66
62928;BME280;51070;52.236;-0.892;2022-09-24T10:01:46;100948.33;;;23.43;43.67
62928;BME280;51070;52.236;-0.892;2022-09-24T10:04:36;100946.14;;;23.58;42.64
62928;BME280;51070;52.236;-0.892;2022-09-24T10:07:14;100948.64;;;23.56;42.19
62928;BME280;51070;52.236;-0.892;2022-09-24T10:09:42;100946.61;;;23.81;41.45
62928;BME280;51070;52.236;-0.892;2022-09-24T10:12:28;100946.88;;;24.03;40.98
62928;BME280;51070;52.236;-0.892;2022-09-24T10:14:58;100941.36;;;24.24;40.92
62928;BME280;51070;52.236;-0.892;2022-09-24T10:17:33;100939.09;;;24.48;40.21
62928;BME280;51070;52.236;-0.892;2022-09-24T10:20:00;100942.17;;;24.69;39.64
62928;BME280;51070;52.236;-0.892;2022-09-24T10:22:27;100938.96;;;24.86;38.91
62928;BME280;51070;52.236;-0.892;2022-09-24T10:24:54;100942.23;;;24.90;38.26
62928;BME280;51070;52.236;-0.892;2022-09-24T10:27:33;100948.09;;;24.80;38.29
62928;BME280;51070;52.236;-0.892;2022-09-24T10:30:01;100947.25;;;24.79;38.36
62928;BME280;51070;52.236;-0.892;2022-09-24T10:32:46;100950.41;;;24.72;38.00
62928;BME280;51070;52.236;-0.892;2022-09-24T10:35:30;100947.46;;;24.53;37.75
62928;BME280;51070;52.236;-0.892;2022-09-24T10:37:59;100949.64;;;24.26;38.23
62928;BME280;51070;52.236;-0.892;2022-09-24T10:40:36;100948.98;;;24.13;38.34
62928;BME280;51070;52.236;-0.892;2022-09-24T10:43:04;100944.23;;;23.94;38.93
62928;BME280;51070;52.236;-0.892;2022-09-24T10:54:20;100940.76;;;22.98;40.08
62928;BME280;51070;52.236;-0.892;2022-09-24T10:56:59;100933.19;;;22.86;40.69
62928;BME280;51070;52.236;-0.892;2022-09-24T10:59:45;100937.67;;;22.66;40.76
62928;BME280;51070;52.236;-0.892;2022-09-24T11:02:25;100942.66;;;22.03;41.13
62928;BME280;51070;52.236;-0.892;2022-09-24T11:21:00;100932.67;;;22.02;41.89
62928;BME280;51070;52.236;-0.892;2022-09-24T11:26:59;100931.02;;;21.56;42.09
62928;BME280;51070;52.236;-0.892;2022-09-24T11:51:30;100935.73;;;20.13;44.08
62928;BME280;51070;52.236;-0.892;2022-09-24T11:54:17;100935.80;;;19.93;44.59
62928;BME280;51070;52.236;-0.892;2022-09-24T11:56:48;100935.65;;;19.82;45.01
62928;BME280;51070;52.236;-0.892;2022-09-24T12:02:00;100938.16;;;19.54;45.60
62928;BME280;51070;52.236;-0.892;2022-09-24T12:05:16;100939.35;;;19.44;46.18
62928;BME280;51070;52.236;-0.892;2022-09-24T12:07:49;100939.02;;;19.39;46.00
62928;BME280;51070;52.236;-0.892;2022-09-24T12:12:47;100939.19;;;19.41;46.28
62928;BME280;51070;52.236;-0.892;2022-09-24T12:15:20;100940.77;;;19.63;45.99
62928;BME280;51070;52.236;-0.892;2022-09-24T12:18:06;100941.13;;;19.62;45.30
62928;BME280;51070;52.236;-0.892;2022-09-24T12:21:03;100940.79;;;19.50;45.26
62928;BME280;51070;52.236;-0.892;2022-09-24T12:23:32;100936.73;;;19.31;45.70
62928;BME280;51070;52.236;-0.892;2022-09-24T12:26:02;100939.17;;;19.20;46.13
62928;BME280;51070;52.236;-0.892;2022-09-24T12:28:37;100936.73;;;19.10;46.33
62928;BME280;51070;52.236;-0.892;2022-09-24T12:31:29;100940.22;;;18.98;46.49
62928;BME280;51070;52.236;-0.892;2022-09-24T12:34:23;100935.67;;;19.02;46.86
62928;BME280;51070;52.236;-0.892;2022-09-24T12:36:56;100934.98;;;19.30;46.45
62928;BME280;51070;52.236;-0.892;2022-09-24T12:42:31;100941.84;;;19.56;45.65
62928;BME280;51070;52.236;-0.892;2022-09-24T12:45:00;100935.30;;;19.80;44.77
62928;BME280;51070;52.236;-0.892;2022-09-24T12:47:29;100933.34;;;19.97;44.17
62928;BME280;51070;52.236;-0.892;2022-09-24T12:50:00;100940.16;;;20.06;44.00
62928;BME280;51070;52.236;-0.892;2022-09-24T12:52:39;100940.84;;;20.12;44.02
62928;BME280;51070;52.236;-0.892;2022-09-24T12:55:25;100939.05;;;20.14;44.03
62928;BME280;51070;52.236;-0.892;2022-09-24T12:57:58;100941.70;;;20.14;44.01
62928;BME280;51070;52.236;-0.892;2022-09-24T13:00:38;100940.29;;;20.14;43.87
62928;BME280;51070;52.236;-0.892;2022-09-24T13:03:06;100934.69;;;20.14;43.43
62928;BME280;51070;52.236;-0.892;2022-09-24T13:05:45;100939.79;;;20.09;43.39
62928;BME280;51070;52.236;-0.892;2022-09-24T13:10:37;100942.45;;;19.99;43.75
62928;BME280;51070;52.236;-0.892;2022-09-24T13:13:20;100944.75;;;19.96;44.44
62928;BME280;51070;52.236;-0.892;2022-09-24T13:16:06;100952.82;;;19.94;44.50
62928;BME280;51070;52.236;-0.892;2022-09-24T13:18:41;100950.73;;;19.82;44.95
62928;BME280;51070;52.236;-0.892;2022-09-24T13:21:18;100951.98;;;19.76;45.15
62928;BME280;51070;52.236;-0.892;2022-09-24T13:23:47;100958.30;;;19.67;45.05
62928;BME280;51070;52.236;-0.892;2022-09-24T13:26:25;100959.02;;;19.57;44.57
62928;BME280;51070;52.236;-0.892;2022-09-24T13:28:56;100956.21;;;19.53;44.21
62928;BME280;51070;52.236;-0.892;2022-09-24T13:31:32;100956.91;;;19.56;44.08
62928;BME280;51070;52.236;-0.892;2022-09-24T13:36:37;100957.97;;;19.52;44.38
62928;BME280;51070;52.236;-0.892;2022-09-24T13:39:34;100958.13;;;19.58;44.40
62928;BME280;51070;52.236;-0.892;2022-09-24T13:42:20;100954.09;;;19.69;44.04
62928;BME280;51070;52.236;-0.892;2022-09-24T13:45:01;100956.72;;;19.75;43.59
62928;BME280;51070;52.236;-0.892;2022-09-24T13:53:06;100956.34;;;19.84;43.54
62928;BME280;51070;52.236;-0.892;2022-09-24T13:55:43;100951.45;;;19.76;43.85
62928;BME280;51070;52.236;-0.892;2022-09-24T14:01:19;100947.08;;;19.67;44.23
62928;BME280;51070;52.236;-0.892;2022-09-24T14:04:20;100940.92;;;19.79;44.25
62928;BME280;51070;52.236;-0.892;2022-09-24T14:06:55;100940.75;;;19.78;44.00
62928;BME280;51070;52.236;-0.892;2022-09-24T14:09:31;100946.38;;;19.67;43.41
62928;BME280;51070;52.236;-0.892;2022-09-24T14:11:59;100951.46;;;19.64;43.25
62928;BME280;51070;52.236;-0.892;2022-09-24T14:14:28;100945.16;;;19.62;43.31
62928;BME280;51070;52.236;-0.892;2022-09-24T14:17:08;100948.85;;;19.51;43.77
62928;BME280;51070;52.236;-0.892;2022-09-24T14:19:37;100951.63;;;19.40;43.91
62928;BME280;51070;52.236;-0.892;2022-09-24T14:22:05;100950.06;;;19.28;44.15
62928;BME280;51070;52.236;-0.892;2022-09-24T14:25:13;100952.85;;;19.16;44.48
62928;BME280;51070;52.236;-0.892;2022-09-24T14:27:31;100950.74;;;19.08;44.66
62928;BME280;51070;52.236;-0.892;2022-09-24T14:30:04;100952.33;;;19.10;44.56
62928;BME280;51070;52.236;-0.892;2022-09-24T14:32:34;100954.61;;;19.10;44.44
62928;BME280;51070;52.236;-0.892;2022-09-24T14:35:09;100954.08;;;19.12;44.49
62928;BME280;51070;52.236;-0.892;2022-09-24T14:37:49;100952.31;;;19.11;44.49
62928;BME280;51070;52.236;-0.892;2022-09-24T14:40:17;100955.29;;;19.04;45.23
62928;BME280;51070;52.236;-0.892;2022-09-24T14:42:46;100957.55;;;18.93;45.95
62928;BME280;51070;52.236;-0.892;2022-09-24T14:45:29;100957.53;;;18.84;46.42
62928;BME280;51070;52.236;-0.892;2022-09-24T14:48:16;100959.44;;;18.74;46.78
62928;BME280;51070;52.236;-0.892;2022-09-24T14:50:43;100960.80;;;18.65;46.58
62928;BME280;51070;52.236;-0.892;2022-09-24T14:53:20;100963.56;;;18.54;46.17
62928;BME280;51070;52.236;-0.892;2022-09-24T14:55:47;100970.15;;;18.46;45.38